sensor_id;sensor_type;location;lat;lon;timestamp;pressure;altitude;pressure_sealevel;temperature;humidity
50650;BME280;36621;60.058;30.346;2022-09-04T13:53:27;102116.22;;;13.02;69.01
50650;BME280;36621;60.058;30.346;2022-09-04T14:01:01;102131.66;;;12.86;68.25
50650;BME280;36621;60.058;30.346;2022-09-04T14:08:38;102117.13;;;12.85;68.20
50650;BME280;36621;60.058;30.346;2022-09-04T14:16:13;102120.44;;;12.88;69.30
50650;BME280;36621;60.058;30.346;2022-09-04T14:23:47;102118.00;;;12.91;68.75
50650;BME280;36621;60.058;30.346;2022-09-04T14:31:27;102125.34;;;13.08;69.53
50650;BME280;36621;60.058;30.346;2022-09-04T14:39:13;102133.88;;;12.89;66.21
50650;BME280;36621;60.058;30.346;2022-09-04T14:46:50;102134.97;;;12.32;69.54
50650;BME280;36621;60.058;30.346;2022-09-04T14:54:26;102142.47;;;12.03;69.69
50650;BME280;36621;60.058;30.346;2022-09-04T15:02:16;102147.56;;;11.82;69.19
50650;BME280;36621;60.058;30.346;2022-09-04T15:09:50;102148.22;;;11.89;70.02
50650;BME280;36621;60.058;30.346;2022-09-04T15:17:26;102156.69;;;11.88;70.54
50650;BME280;36621;60.058;30.346;2022-09-04T15:25:02;102150.34;;;11.99;71.02
50650;BME280;36621;60.058;30.346;2022-09-04T15:32:35;102152.00;;;12.17;70.87
50650;BME280;36621;60.058;30.346;2022-09-04T15:40:11;102149.44;;;12.10;71.04
50650;BME280;36621;60.058;30.346;2022-09-04T15:48:17;102159.94;;;12.02;71.13
50650;BME280;36621;60.058;30.346;2022-09-04T15:56:29;102166.94;;;12.09;71.84
50650;BME280;36621;60.058;30.346;2022-09-04T16:04:19;102170.50;;;12.10;72.22
50650;BME280;36621;60.058;30.346;2022-09-04T16:11:55;102170.44;;;12.05;72.13
50650;BME280;36621;60.058;30.346;2022-09-04T16:19:30;102173.63;;;12.02;72.24
50650;BME280;36621;60.058;30.346;2022-09-04T16:27:09;102176.31;;;11.96;72.20
50650;BME280;36621;60.058;30.346;2022-09-04T16:34:45;102185.47;;;11.90;72.49
50650;BME280;36621;60.058;30.346;2022-09-04T16:42:20;102189.97;;;11.68;72.03
50650;BME280;36621;60.058;30.346;2022-09-04T16:49:55;102190.78;;;11.68;72.07
50650;BME280;36621;60.058;30.346;2022-09-04T16:57:31;102206.47;;;11.73;72.44
50650;BME280;36621;60.058;30.346;2022-09-04T17:05:09;102209.63;;;11.64;71.48
50650;BME280;36621;60.058;30.346;2022-09-04T17:12:49;102218.81;;;11.58;72.60
50650;BME280;36621;60.058;30.346;2022-09-04T17:20:24;102225.81;;;11.54;72.08
50650;BME280;36621;60.058;30.346;2022-09-04T17:28:01;102228.69;;;11.47;72.00
50650;BME280;36621;60.058;30.346;2022-09-04T17:35:36;102233.13;;;11.37;71.77
50650;BME280;36621;60.058;30.346;2022-09-04T17:43:16;102239.19;;;11.39;72.40
50650;BME280;36621;60.058;30.346;2022-09-04T17:50:53;102241.44;;;11.42;72.70
50650;BME280;36621;60.058;30.346;2022-09-04T17:58:28;102250.69;;;11.41;72.54
50650;BME280;36621;60.058;30.346;2022-09-04T18:06:03;102239.31;;;11.44;72.58
50650;BME280;36621;60.058;30.346;2022-09-04T18:13:38;102247.97;;;11.41;72.17
50650;BME280;36621;60.058;30.346;2022-09-04T18:21:14;102240.97;;;11.33;72.31
50650;BME280;36621;60.058;30.346;2022-09-04T18:28:51;102240.50;;;11.24;72.13
50650;BME280;36621;60.058;30.346;2022-09-04T18:36:25;102248.25;;;11.16;72.30
50650;BME280;36621;60.058;30.346;2022-09-04T18:44:05;102246.59;;;11.15;72.07
50650;BME280;36621;60.058;30.346;2022-09-04T18:51:40;102256.00;;;11.07;72.50
50650;BME280;36621;60.058;30.346;2022-09-04T18:59:22;102260.75;;;11.00;71.84
50650;BME280;36621;60.058;30.346;2022-09-04T19:06:56;102259.56;;;10.95;72.22
50650;BME280;36621;60.058;30.346;2022-09-04T19:14:30;102251.13;;;10.97;72.04
50650;BME280;36621;60.058;30.346;2022-09-04T19:22:06;102262.88;;;10.98;72.51
50650;BME280;36621;60.058;30.346;2022-09-04T19:29:42;102258.38;;;10.91;72.68
50650;BME280;36621;60.058;30.346;2022-09-04T19:37:17;102271.91;;;10.86;72.42
50650;BME280;36621;60.058;30.346;2022-09-04T19:44:51;102258.00;;;10.76;72.41
50650;BME280;36621;60.058;30.346;2022-09-04T19:52:27;102267.84;;;10.77;72.74
50650;BME280;36621;60.058;30.346;2022-09-04T20:00:03;102277.97;;;10.76;72.70
50650;BME280;36621;60.058;30.346;2022-09-04T20:07:40;102273.31;;;10.77;72.83
50650;BME280;36621;60.058;30.346;2022-09-04T20:15:16;102273.22;;;10.72;72.83
50650;BME280;36621;60.058;30.346;2022-09-04T20:22:49;102277.25;;;10.69;72.61
50650;BME280;36621;60.058;30.346;2022-09-04T20:30:24;102279.75;;;10.71;72.83
50650;BME280;36621;60.058;30.346;2022-09-04T20:37:57;102282.31;;;10.66;72.48
50650;BME280;36621;60.058;30.346;2022-09-04T20:45:33;102277.81;;;10.59;72.49
50650;BME280;36621;60.058;30.346;2022-09-04T20:53:08;102291.00;;;10.63;72.65
50650;BME280;36621;60.058;30.346;2022-09-04T21:00:46;102302.97;;;10.62;72.75
50650;BME280;36621;60.058;30.346;2022-09-04T21:08:26;102305.13;;;10.59;72.20
50650;BME280;36621;60.058;30.346;2022-09-04T21:16:12;102305.22;;;10.53;72.20
50650;BME280;36621;60.058;30.346;2022-09-04T21:23:53;102314.25;;;10.53;73.05
50650;BME280;36621;60.058;30.346;2022-09-04T21:31:36;102324.13;;;10.54;72.76
50650;BME280;36621;60.058;30.346;2022-09-04T21:39:25;102324.22;;;10.48;72.25
50650;BME280;36621;60.058;30.346;2022-09-04T21:47:14;102318.16;;;10.46;72.81
50650;BME280;36621;60.058;30.346;2022-09-04T21:54:51;102326.34;;;10.46;71.91
50650;BME280;36621;60.058;30.346;2022-09-04T22:02:27;102327.28;;;10.39;72.43
50650;BME280;36621;60.058;30.346;2022-09-04T22:10:05;102326.50;;;10.32;72.41
50650;BME280;36621;60.058;30.346;2022-09-04T22:17:49;102329.47;;;10.31;71.79
50650;BME280;36621;60.058;30.346;2022-09-04T22:25:31;102326.81;;;10.24;71.80
50650;BME280;36621;60.058;30.346;2022-09-04T22:33:29;102334.19;;;10.23;71.73
50650;BME280;36621;60.058;30.346;2022-09-04T22:41:10;102333.97;;;10.25;71.75
50650;BME280;36621;60.058;30.346;2022-09-04T22:56:43;102334.06;;;10.18;71.33
50650;BME280;36621;60.058;30.346;2022-09-04T23:04:24;102341.50;;;10.11;71.46
50650;BME280;36621;60.058;30.346;2022-09-04T23:27:42;102334.19;;;10.23;71.76
50650;BME280;36621;60.058;30.346;2022-09-04T23:35:22;102333.25;;;10.30;71.96
50650;BME280;36621;60.058;30.346;2022-09-04T23:43:22;102335.97;;;10.30;72.26
50650;BME280;36621;60.058;30.346;2022-09-04T23:51:00;102341.69;;;10.28;72.64
50650;BME280;36621;60.058;30.346;2022-09-04T23:58:40;102336.59;;;10.32;72.63
